Decoded Metar for GMAD (AL MASSIRA MC in MOROCCO) (IATA:N/A) | Meteo·Mobile Aviation Weather
aviador You're here:

GMAD Decoded Metar

AL MASSIRA MC in MOROCCO
Report Time2018-10-19 09:00:00
UTC Time2018-10-19 09:28:21
Flight Rules vfr VFR
Wind340° at 03 kt
W.Decomp.*RWY 28: 1.4 kt HW 2.7 kt RCW
W.Rank340° ranks 33
Current wind is below 340° avg. (3.8)
Visibility9999 m
Phenomena:N/A
Clouds:Few 016 Hf
Expected CloudBase > 2,400 ft AGL from Temp-Dew spread
CeilingNone
Temp18°C (ISA +3)
Dew Point12°C (68% RH)
AAT17.5°C
QNH1011 hPa
Density Alt909 ft
Elevation243 ft
Report Wrong Elevation
Raw Report
GMAD 190900Z 34003KT 290V060 9999 FEW016 18/12 Q1011 NOSIG=

Extra information for GMAD:More info

Metar Taf Metar & Taf Last 4 Metars F.Rules Stats Wind Profile Meteogram Temp Stats Airport Information Weather charts Add Link Nearby VenuesMetar ALERT Operation Metar Decoded Social comments